Time;durP1;ratioP1;P1;durP2;ratioP2;P2;SDS_P1;SDS_P2;PMS_P1;PMS_P2;Temp;Humidity;BMP_temperature;BMP_pressure;BME280_temperature;BME280_humidity;BME280_pressure;Samples;Min_cycle;Max_cycle;Signal;HPM_P1;HPM_P2
2023/05/09 00:01:06;;;;;;;54.58;35.28;;;;;;;22.22;51.75;101865.16;5021363;28;20041;-36
2023/05/09 00:03:33;;;;;;;51.85;34.42;;;;;;;22.21;51.94;101855.38;5025747;28;20049;-36
2023/05/09 00:06:00;;;;;;;49.95;33.80;;;;;;;22.21;51.99;101856.22;5017821;28;20632;-36
2023/05/09 00:08:26;;;;;;;54.33;35.38;;;;;;;22.21;51.95;101852.66;5018520;28;20048;-35
2023/05/09 00:10:53;;;;;;;51.28;34.72;;;;;;;22.20;51.89;101849.13;5023352;28;20072;-35
2023/05/09 00:13:19;;;;;;;52.45;34.53;;;;;;;22.20;51.73;101850.97;5020385;28;20045;-35
2023/05/09 00:15:46;;;;;;;53.17;34.75;;;;;;;22.18;51.79;101846.56;5024139;28;20487;-35
2023/05/09 00:18:13;;;;;;;52.47;34.08;;;;;;;22.17;51.87;101847.56;5023958;28;20042;-35
2023/05/09 00:20:40;;;;;;;51.90;34.80;;;;;;;22.18;52.01;101838.44;5022534;28;20049;-35
2023/05/09 00:23:06;;;;;;;52.28;35.75;;;;;;;22.17;51.86;101836.78;5024498;28;20072;-36
2023/05/09 00:25:33;;;;;;;52.70;35.38;;;;;;;22.17;51.91;101836.78;5022494;28;20136;-35
2023/05/09 00:27:59;;;;;;;54.70;35.13;;;;;;;22.16;52.02;101836.94;5024404;28;20049;-36
2023/05/09 00:30:26;;;;;;;51.72;34.85;;;;;;;22.16;51.83;101837.78;5019768;28;20157;-35
2023/05/09 00:32:53;;;;;;;54.95;34.83;;;;;;;22.16;52.25;101831.53;5025751;28;20049;-36
2023/05/09 00:35:19;;;;;;;53.13;33.70;;;;;;;22.15;51.81;101825.28;5024179;28;20050;-36
2023/05/09 00:37:46;;;;;;;51.75;33.67;;;;;;;22.14;51.99;101834.38;5017859;28;20136;-36
2023/05/09 00:40:12;;;;;;;52.38;33.83;;;;;;;22.13;51.62;101823.75;5022744;28;20041;-35
2023/05/09 00:42:39;;;;;;;49.63;32.58;;;;;;;22.12;51.85;101825.56;5022408;28;20476;-36
2023/05/09 00:45:07;;;;;;;47.35;31.88;;;;;;;22.11;52.03;101826.56;5025615;28;20378;-35
2023/05/09 00:47:33;;;;;;;45.35;30.85;;;;;;;22.10;52.07;101813.22;5024491;28;20045;-36
2023/05/09 00:50:01;;;;;;;46.72;31.30;;;;;;;22.08;52.04;101821.47;5022699;28;20077;-37
2023/05/09 00:52:28;;;;;;;47.00;31.27;;;;;;;22.06;52.02;101815.38;5021597;28;20060;-35
2023/05/09 00:54:55;;;;;;;45.13;29.92;;;;;;;22.05;52.05;101816.38;5025197;28;20049;-36
2023/05/09 00:57:22;;;;;;;46.03;29.55;;;;;;;22.03;52.20;101807.63;5021870;28;20053;-35
2023/05/09 00:59:49;;;;;;;44.17;29.83;;;;;;;22.03;52.04;101810.31;5019511;28;20468;-35
2023/05/09 01:02:19;;;;;;;45.47;30.23;;;;;;;22.01;52.08;101798.81;5019630;28;20108;-36
2023/05/09 01:04:46;;;;;;;42.90;28.48;;;;;;;22.01;52.05;101797.97;5023068;28;20063;-36
2023/05/09 01:07:20;;;;;;;41.72;27.80;;;;;;;21.98;51.82;101787.47;5021868;28;20052;-35
2023/05/09 01:09:53;;;;;;;43.03;27.92;;;;;;;21.96;52.09;101789.50;5024084;28;20100;-36
2023/05/09 01:12:22;;;;;;;41.45;26.92;;;;;;;21.94;52.21;101781.53;5026279;28;20053;-35
2023/05/09 01:15:12;;;;;;;39.80;27.50;;;;;;;21.92;51.94;101783.56;5024982;28;20060;-35
2023/05/09 01:18:07;;;;;;;42.38;27.95;;;;;;;21.89;52.19;101779.31;5027562;28;20053;-35
2023/05/09 01:20:50;;;;;;;;;;;;;;;21.89;51.97;101784.72;5024989;28;20042;-35
2023/05/09 01:23:59;;;;;;;39.78;26.73;;;;;;;21.86;51.90;101771.53;5029715;28;19925;-35
2023/05/09 01:26:41;;;;;;;40.00;27.00;;;;;;;21.85;52.27;101769.00;5026395;28;20360;-35
2023/05/09 01:29:26;;;;;;;37.30;25.20;;;;;;;21.84;52.14;101762.75;5025579;28;20441;-35
2023/05/09 01:31:55;;;;;;;39.00;26.08;;;;;;;21.82;52.18;101767.44;5022683;28;20120;-35
2023/05/09 01:34:26;;;;;;;38.22;25.48;;;;;;;21.80;52.40;101763.22;5028415;28;20476;-35
2023/05/09 01:36:57;;;;;;;37.28;24.92;;;;;;;21.79;52.01;101761.50;5025677;28;20267;-35
2023/05/09 01:39:25;;;;;;;39.45;25.88;;;;;;;21.78;52.08;101759.81;5026906;28;20045;-35
2023/05/09 01:41:55;;;;;;;36.13;24.63;;;;;;;21.76;52.01;101757.28;5026685;28;20053;-35
2023/05/09 01:44:24;;;;;;;34.40;23.38;;;;;;;21.75;52.56;101755.59;5025921;28;20052;-36
2023/05/09 01:46:53;;;;;;;35.72;23.20;;;;;;;21.75;51.95;101749.31;5021495;28;20061;-36
2023/05/09 01:49:21;;;;;;;36.40;24.10;;;;;;;21.75;52.19;101738.53;5020483;28;20450;-35
2023/05/09 01:51:49;;;;;;;33.55;23.23;;;;;;;21.74;52.25;101736.84;5027489;28;20413;-36
2023/05/09 01:54:17;;;;;;;35.08;22.83;;;;;;;21.72;52.44;101739.72;5025203;28;20042;-35
2023/05/09 01:56:45;;;;;;;36.22;23.50;;;;;;;21.72;52.25;101728.91;5026753;28;20064;-36
2023/05/09 01:59:14;;;;;;;37.70;24.33;;;;;;;21.71;52.33;101737.16;5025447;28;20133;-35
2023/05/09 02:01:43;;;;;;;35.05;23.73;;;;;;;21.69;52.18;101734.63;5026784;28;20046;-35
2023/05/09 02:04:14;;;;;;;34.15;22.95;;;;;;;21.69;52.39;101730.06;5026589;28;20818;-35
2023/05/09 02:06:43;;;;;;;32.70;22.35;;;;;;;21.68;52.02;101719.44;5026404;28;20068;-35
2023/05/09 02:09:11;;;;;;;32.13;21.70;;;;;;;21.68;52.45;101720.28;5024560;28;20092;-36
2023/05/09 02:11:38;;;;;;;34.58;22.70;;;;;;;21.68;52.22;101722.13;5018627;28;20053;-35
2023/05/09 02:14:05;;;;;;;30.85;20.70;;;;;;;21.67;52.17;101723.16;5028755;28;20401;-35
2023/05/09 02:16:31;;;;;;;30.70;21.50;;;;;;;21.65;52.22;101723.28;5025723;28;20057;-35
2023/05/09 02:18:58;;;;;;;33.67;22.42;;;;;;;21.65;52.33;101722.44;5026130;28;20053;-35
2023/05/09 02:21:25;;;;;;;31.65;20.95;;;;;;;21.65;52.35;101722.44;5027472;28;20049;-36
2023/05/09 02:23:54;;;;;;;33.85;22.02;;;;;;;21.64;51.83;101731.56;5024901;28;20045;-35
2023/05/09 02:26:21;;;;;;;30.83;21.13;;;;;;;21.63;52.27;101719.91;5023787;28;20054;-36
2023/05/09 02:28:49;;;;;;;30.98;20.70;;;;;;;21.63;52.18;101719.91;5024763;28;20053;-35
2023/05/09 02:31:19;;;;;;;31.15;21.55;;;;;;;21.62;52.17;101718.19;5023604;28;20049;-36
2023/05/09 02:33:50;;;;;;;30.20;20.30;;;;;;;21.61;52.34;101716.50;5026517;28;20045;-35
2023/05/09 02:36:17;;;;;;;30.05;20.50;;;;;;;21.60;52.21;101722.06;5020897;28;20466;-36
2023/05/09 02:38:45;;;;;;;30.10;20.05;;;;;;;21.60;52.29;101720.22;5024319;28;20437;-35
2023/05/09 02:41:13;;;;;;;28.80;19.25;;;;;;;21.59;52.27;101710.44;5025718;28;20057;-35
2023/05/09 02:43:40;;;;;;;29.50;20.05;;;;;;;21.60;52.15;101713.97;5024317;28;20072;-35
2023/05/09 02:46:07;;;;;;;32.40;20.30;;;;;;;21.58;52.40;101702.47;5023346;28;20340;-36
2023/05/09 02:48:34;;;;;;;27.50;19.13;;;;;;;21.58;52.21;101703.31;5024703;28;20069;-36
2023/05/09 02:51:01;;;;;;;26.85;18.08;;;;;;;21.57;52.49;101690.00;5017894;28;20125;-35
2023/05/09 02:53:27;;;;;;;27.75;19.10;;;;;;;21.56;52.50;101697.25;5022620;28;20045;-36
2023/05/09 02:55:54;;;;;;;28.55;19.63;;;;;;;21.56;52.25;101693.72;5022510;28;20059;-35
2023/05/09 02:58:21;;;;;;;27.23;18.77;;;;;;;21.55;51.84;101690.19;5025646;28;20057;-35
2023/05/09 03:00:47;;;;;;;28.05;18.60;;;;;;;21.55;52.10;101692.88;5022778;28;20052;-37
2023/05/09 03:03:16;;;;;;;27.75;18.42;;;;;;;21.54;52.37;101688.47;5019386;28;20437;-35
2023/05/09 03:05:43;;;;;;;26.58;18.00;;;;;;;21.54;52.47;101685.75;5020531;28;20144;-36
2023/05/09 03:08:10;;;;;;;27.95;18.42;;;;;;;21.52;52.21;101682.38;5025498;28;20060;-36
2023/05/09 03:10:36;;;;;;;26.38;17.27;;;;;;;21.51;52.32;101675.31;5023942;28;20041;-36
2023/05/09 03:13:03;;;;;;;26.25;18.10;;;;;;;21.51;52.02;101671.72;5020071;28;20111;-35
2023/05/09 03:15:29;;;;;;;26.08;17.42;;;;;;;21.51;51.99;101674.44;5025557;28;20480;-35
2023/05/09 03:17:56;;;;;;;27.00;17.42;;;;;;;21.49;52.27;101663.81;5019389;28;20056;-35
2023/05/09 03:20:24;;;;;;;26.08;17.45;;;;;;;21.49;52.13;101661.13;5024696;28;20132;-35
2023/05/09 03:22:51;;;;;;;23.33;16.27;;;;;;;21.49;52.51;101666.50;5028778;28;20372;-35
2023/05/09 03:25:18;;;;;;;24.80;17.00;;;;;;;21.48;51.98;101662.13;5024460;28;20054;-36
2023/05/09 03:27:44;;;;;;;23.88;15.77;;;;;;;21.47;52.33;101649.66;5023767;28;20073;-35
2023/05/09 03:30:11;;;;;;;24.73;16.52;;;;;;;21.47;52.36;101648.78;5025464;28;20053;-35
2023/05/09 03:32:38;;;;;;;25.10;17.13;;;;;;;21.47;52.58;101646.06;5023495;28;20053;-35
2023/05/09 03:35:05;;;;;;;23.52;16.35;;;;;;;21.46;52.41;101637.13;5024163;28;20057;-36
2023/05/09 03:37:32;;;;;;;24.13;16.67;;;;;;;21.44;52.49;101641.88;5021485;28;20061;-35
2023/05/09 03:39:58;;;;;;;24.25;17.17;;;;;;;21.44;52.45;101633.78;5022234;28;20059;-36
2023/05/09 03:42:25;;;;;;;22.67;15.60;;;;;;;21.44;52.31;101639.16;5023498;28;20049;-36
2023/05/09 03:44:52;;;;;;;24.30;16.30;;;;;;;21.43;51.92;101634.78;5025807;28;20366;-36
2023/05/09 03:47:18;;;;;;;23.40;16.05;;;;;;;21.43;52.33;101632.09;5020007;28;20437;-35
2023/05/09 03:49:45;;;;;;;20.30;14.57;;;;;;;21.43;52.60;101626.69;5023576;28;20042;-35
2023/05/09 03:52:11;;;;;;;21.90;15.10;;;;;;;21.41;52.24;101624.13;5022776;28;20357;-35
2023/05/09 03:54:38;;;;;;;21.40;14.98;;;;;;;21.41;52.33;101623.28;5020445;28;20052;-35
2023/05/09 03:57:05;;;;;;;20.38;14.32;;;;;;;21.40;52.37;101621.59;5022983;28;20070;-35
2023/05/09 03:59:32;;;;;;;21.23;14.55;;;;;;;21.39;52.27;101618.06;5021517;28;20055;-35
2023/05/09 04:01:58;;;;;;;20.73;14.18;;;;;;;21.39;52.46;101619.91;5018301;28;20337;-36
2023/05/09 04:04:26;;;;;;;21.38;14.85;;;;;;;21.39;52.06;101625.31;5021024;28;20045;-35
2023/05/09 04:06:53;;;;;;;19.60;13.90;;;;;;;21.38;52.21;101608.25;5022661;28;20128;-35
2023/05/09 04:09:19;;;;;;;21.42;14.55;;;;;;;21.38;52.47;101604.72;5022696;28;20053;-36
2023/05/09 04:11:46;;;;;;;20.88;14.27;;;;;;;21.37;52.29;101613.81;5021879;28;20045;-35
2023/05/09 04:14:12;;;;;;;19.15;13.93;;;;;;;21.37;52.26;101614.66;5024813;28;20064;-36
2023/05/09 04:16:39;;;;;;;19.08;13.27;;;;;;;21.37;52.17;101613.81;5023414;28;20086;-35
2023/05/09 04:19:06;;;;;;;21.98;14.05;;;;;;;21.36;52.29;101610.28;5021123;28;20053;-36
2023/05/09 04:21:32;;;;;;;20.38;12.77;;;;;;;21.36;52.31;101607.59;5021140;28;20049;-35
2023/05/09 04:23:59;;;;;;;19.77;13.15;;;;;;;21.36;52.41;101609.44;5019967;28;20052;-35
2023/05/09 04:26:26;;;;;;;18.10;12.65;;;;;;;21.35;52.30;101605.06;5022212;28;20421;-35
2023/05/09 04:28:52;;;;;;;18.48;12.82;;;;;;;21.34;52.29;101595.25;5021130;28;20053;-35
2023/05/09 04:31:19;;;;;;;18.30;13.10;;;;;;;21.35;52.33;101602.38;5023106;28;20045;-35
2023/05/09 04:33:46;;;;;;;18.02;12.55;;;;;;;21.34;52.38;101593.41;5018888;28;20349;-35
2023/05/09 04:36:13;;;;;;;18.45;12.70;;;;;;;21.34;52.39;101595.25;5025442;28;20434;-35
2023/05/09 04:38:39;;;;;;;18.88;13.57;;;;;;;21.34;52.43;101587.16;5023065;28;20404;-35
2023/05/09 04:41:06;;;;;;;17.92;12.93;;;;;;;21.34;52.55;101590.69;5020386;28;20046;-35
2023/05/09 04:43:33;;;;;;;17.17;11.75;;;;;;;21.34;52.15;101581.78;5020135;28;20434;-35
2023/05/09 04:46:00;;;;;;;15.98;11.27;;;;;;;21.34;52.38;101587.16;5019503;28;20081;-35
2023/05/09 04:48:26;;;;;;;16.58;12.18;;;;;;;21.34;52.11;101579.06;5030068;28;20439;-35
2023/05/09 04:50:53;;;;;;;17.52;11.80;;;;;;;21.34;52.09;101576.38;5029378;28;20140;-36
2023/05/09 04:53:19;;;;;;;18.92;12.35;;;;;;;21.34;52.33;101571.81;5028132;28;20137;-35
2023/05/09 04:55:46;;;;;;;17.65;11.98;;;;;;;21.34;52.04;101576.38;5022855;28;20054;-36
2023/05/09 04:58:13;;;;;;;15.30;11.40;;;;;;;21.34;52.43;101573.69;5029123;28;20588;-35
2023/05/09 05:00:39;;;;;;;17.33;11.88;;;;;;;21.33;52.10;101564.75;5026126;28;20045;-35
2023/05/09 05:03:06;;;;;;;16.17;10.82;;;;;;;21.34;51.92;101576.38;5028242;28;20136;-36
2023/05/09 05:05:33;;;;;;;15.52;10.38;;;;;;;21.34;52.08;101565.59;5028578;28;20372;-35
2023/05/09 05:08:03;;;;;;;16.73;10.82;;;;;;;21.35;52.21;101561.91;5027841;28;20053;-35
2023/05/09 05:10:29;;;;;;;16.42;11.30;;;;;;;21.34;52.48;101557.50;5028182;28;20050;-35
2023/05/09 05:12:56;;;;;;;17.17;11.25;;;;;;;21.34;52.45;101558.34;5028132;28;20054;-36
2023/05/09 05:15:22;;;;;;;14.95;10.63;;;;;;;21.33;52.15;101559.34;5028427;28;20053;-35
2023/05/09 05:17:49;;;;;;;15.52;10.50;;;;;;;21.34;52.33;101555.66;5027969;28;20053;-36
2023/05/09 05:20:16;;;;;;;16.25;11.27;;;;;;;21.35;51.86;101543.03;5026265;28;20049;-35
2023/05/09 05:22:42;;;;;;;15.80;10.80;;;;;;;21.35;51.97;101548.44;5029254;28;20057;-36
2023/05/09 05:25:09;;;;;;;13.50;10.02;;;;;;;21.35;51.99;101538.47;5030403;28;20049;-35
2023/05/09 05:27:36;;;;;;;16.80;10.73;;;;;;;21.36;51.89;101542.03;5029136;28;20050;-35
2023/05/09 05:30:03;;;;;;;17.08;10.55;;;;;;;21.36;51.80;101533.94;5022310;28;20404;-35
2023/05/09 05:32:29;;;;;;;14.75;10.35;;;;;;;21.36;51.84;101539.31;5024622;28;20050;-35
2023/05/09 05:34:56;;;;;;;15.20;10.50;;;;;;;21.36;51.76;101529.38;5025120;28;20523;-35
2023/05/09 05:37:23;;;;;;;14.38;9.85;;;;;;;21.36;51.92;101532.06;5024036;28;20057;-35
2023/05/09 05:39:50;;;;;;;15.93;10.35;;;;;;;21.36;51.80;101528.53;5025432;28;20064;-36
2023/05/09 05:42:17;;;;;;;15.48;9.75;;;;;;;21.36;51.94;101526.69;5023274;28;20050;-35
2023/05/09 05:44:43;;;;;;;13.90;9.85;;;;;;;21.35;51.96;101516.91;5023422;28;20418;-38
2023/05/09 05:47:10;;;;;;;19.20;9.85;;;;;;;21.35;51.93;101521.47;5024298;28;20364;-36
2023/05/09 05:49:37;;;;;;;13.00;9.32;;;;;;;21.34;51.55;101517.88;5026084;28;20085;-35
2023/05/09 05:52:04;;;;;;;12.15;9.57;;;;;;;21.34;51.80;101517.88;5025228;28;20049;-35
2023/05/09 05:54:30;;;;;;;15.13;9.95;;;;;;;21.33;51.75;101509.97;5024931;28;20049;-35
2023/05/09 05:56:57;;;;;;;12.65;9.45;;;;;;;21.32;51.66;101500.16;5025387;28;20088;-36
2023/05/09 05:59:24;;;;;;;15.15;9.32;;;;;;;21.31;51.81;101507.41;5020901;28;20432;-35
2023/05/09 06:01:50;;;;;;;13.57;9.27;;;;;;;21.31;51.94;101507.41;5019210;28;20053;-35
2023/05/09 06:04:17;;;;;;;13.60;9.10;;;;;;;21.30;51.77;101502.16;5023240;28;20049;-35
2023/05/09 06:06:44;;;;;;;14.60;9.40;;;;;;;21.30;52.17;101503.00;5028888;28;20096;-35
2023/05/09 06:09:11;;;;;;;13.18;8.75;;;;;;;21.30;51.70;101497.63;5021866;28;20128;-35
2023/05/09 06:11:38;;;;;;;12.75;8.75;;;;;;;21.30;51.88;101497.63;5026388;28;20048;-35
2023/05/09 06:14:04;;;;;;;13.45;9.57;;;;;;;21.29;51.73;101495.94;5019610;28;20049;-35
2023/05/09 06:16:31;;;;;;;12.80;9.20;;;;;;;21.30;51.64;101491.38;5021878;28;20327;-36
2023/05/09 06:18:58;;;;;;;13.95;8.50;;;;;;;21.29;52.07;101492.38;5025319;28;20377;-35
2023/05/09 06:21:25;;;;;;;13.48;8.75;;;;;;;21.29;51.97;101490.53;5024941;28;20049;-35
2023/05/09 06:23:51;;;;;;;11.38;8.50;;;;;;;21.29;51.90;101487.00;5026333;28;20049;-35
2023/05/09 06:26:35;;;;;;;11.35;8.18;;;;;;;21.29;51.90;101489.69;5026668;28;20076;-35
2023/05/09 06:29:03;;;;;;;11.98;8.57;;;;;;;21.28;51.92;101488.00;5022476;28;20468;-36
2023/05/09 06:31:29;;;;;;;11.35;7.80;;;;;;;21.28;51.70;101488.00;5024571;28;20353;-36
2023/05/09 06:33:56;;;;;;;11.70;8.45;;;;;;;21.27;52.10;101489.88;5020901;28;20109;-35
2023/05/09 06:36:23;;;;;;;12.27;8.27;;;;;;;21.28;51.82;101488.00;5025796;28;20057;-35
2023/05/09 06:38:49;;;;;;;9.85;7.72;;;;;;;21.27;51.81;101486.31;5023589;28;20058;-35
2023/05/09 06:41:16;;;;;;;11.85;8.20;;;;;;;21.25;52.01;101477.53;5024405;28;20431;-35
2023/05/09 06:43:43;;;;;;;13.52;8.63;;;;;;;21.24;52.12;101476.69;5025671;28;20049;-35
2023/05/09 06:46:09;;;;;;;11.43;8.23;;;;;;;21.24;51.95;101473.16;5028355;28;20055;-35
2023/05/09 06:48:36;;;;;;;12.73;8.70;;;;;;;21.23;51.96;101471.44;5023750;28;20445;-35
2023/05/09 06:51:02;;;;;;;11.05;7.88;;;;;;;21.23;52.09;101468.75;5018955;28;20509;-35
2023/05/09 06:53:29;;;;;;;9.85;7.13;;;;;;;21.23;52.01;101468.75;5020022;28;20083;-35
2023/05/09 06:55:56;;;;;;;9.98;7.15;;;;;;;21.22;52.16;101465.22;5025769;28;20053;-38
2023/05/09 06:58:22;;;;;;;12.88;8.30;;;;;;;21.22;52.18;101473.28;5024073;28;20455;-35
2023/05/09 07:00:50;;;;;;;9.95;7.88;;;;;;;21.21;52.31;101463.53;5019371;28;20057;-35
2023/05/09 07:03:16;;;;;;;10.30;7.97;;;;;;;21.23;51.91;101468.75;5026463;28;20460;-36
2023/05/09 07:05:43;;;;;;;10.57;7.47;;;;;;;21.22;51.67;101461.66;5017982;28;20456;-35
2023/05/09 07:08:09;;;;;;;11.23;7.30;;;;;;;21.22;51.98;101462.50;5021234;28;20059;-35
2023/05/09 07:10:37;;;;;;;10.13;7.47;;;;;;;21.21;51.88;101455.44;5023320;28;20046;-34
2023/05/09 07:13:04;;;;;;;10.43;7.80;;;;;;;21.21;51.94;101458.13;5023056;28;20137;-36
2023/05/09 07:15:31;;;;;;;12.35;7.32;;;;;;;21.23;51.68;101453.44;5023049;28;20049;-34
2023/05/09 07:18:07;;;;;;;9.30;6.93;;;;;;;21.22;52.06;101450.88;5019806;28;20081;-35
2023/05/09 07:20:34;;;;;;;9.70;6.97;;;;;;;21.22;51.84;101446.34;5026249;28;20116;-34
2023/05/09 07:23:04;;;;;;;12.07;8.02;;;;;;;21.22;51.95;101440.09;5022721;28;20049;-34
2023/05/09 07:25:31;;;;;;;7.88;6.22;;;;;;;21.20;51.86;101435.72;5021655;28;20056;-34
2023/05/09 07:27:58;;;;;;;10.50;7.05;;;;;;;21.22;51.86;101432.84;5022260;28;20435;-34
2023/05/09 07:30:24;;;;;;;8.70;6.65;;;;;;;21.20;51.79;101424.94;5016377;28;20041;-34
2023/05/09 07:32:51;;;;;;;9.90;7.32;;;;;;;21.20;51.81;101427.63;5016725;28;20060;-34
2023/05/09 07:35:19;;;;;;;11.30;7.32;;;;;;;21.22;51.84;101438.25;5021591;28;20371;-34
2023/05/09 07:37:46;;;;;;;8.98;6.45;;;;;;;21.21;51.84;101428.47;5025149;28;20053;-33
2023/05/09 07:40:12;;;;;;;9.45;6.43;;;;;;;21.21;51.95;101428.47;5023446;28;20041;-34
2023/05/09 07:42:41;;;;;;;10.88;6.60;;;;;;;21.20;51.95;101424.94;5023079;28;20132;-35
2023/05/09 07:45:09;;;;;;;8.68;6.60;;;;;;;21.20;51.94;101421.41;5026246;28;20045;-34
2023/05/09 07:47:35;;;;;;;8.93;6.68;;;;;;;21.20;51.72;101421.41;5024019;28;20403;-35
2023/05/09 07:50:02;;;;;;;9.30;6.57;;;;;;;21.19;51.89;101415.16;5020658;28;20079;-34
2023/05/09 07:52:29;;;;;;;9.13;6.38;;;;;;;21.19;51.63;101415.16;5021398;28;20053;-34
2023/05/09 07:54:55;;;;;;;8.90;6.28;;;;;;;21.20;51.80;101408.75;5023130;28;20045;-34
2023/05/09 07:57:22;;;;;;;7.53;5.85;;;;;;;21.20;51.75;101410.63;5024694;28;20053;-35
2023/05/09 07:59:49;;;;;;;8.93;6.40;;;;;;;21.20;52.13;101406.06;5022096;28;20245;-34
2023/05/09 08:02:15;;;;;;;9.43;6.45;;;;;;;21.20;52.11;101395.28;5019773;28;20055;-34
2023/05/09 08:04:42;;;;;;;8.02;6.25;;;;;;;21.18;52.04;101391.03;5021391;28;20120;-34
2023/05/09 08:07:10;;;;;;;9.98;6.50;;;;;;;21.19;52.18;101388.22;5020208;28;20089;-35
2023/05/09 08:09:37;;;;;;;9.20;6.25;;;;;;;21.19;51.91;101382.81;5023167;28;20552;-34
2023/05/09 08:12:04;;;;;;;8.98;6.15;;;;;;;21.19;51.74;101381.97;5027248;28;20137;-34
2023/05/09 08:14:31;;;;;;;9.82;6.70;;;;;;;21.19;51.87;101380.13;5021545;28;20084;-34
2023/05/09 08:16:57;;;;;;;7.10;5.10;;;;;;;21.19;52.10;101379.28;5021952;28;20050;-34
2023/05/09 08:19:24;;;;;;;8.38;5.70;;;;;;;21.19;52.15;101373.91;5028002;28;20132;-34
2023/05/09 08:21:52;;;;;;;8.90;6.00;;;;;;;21.18;52.03;101373.03;5026871;28;20042;-35
2023/05/09 08:24:19;;;;;;;6.55;5.40;;;;;;;21.18;52.13;101367.63;5026931;28;20045;-34
2023/05/09 08:26:45;;;;;;;9.20;5.88;;;;;;;21.18;52.06;101364.94;5028605;28;20107;-34
2023/05/09 08:29:12;;;;;;;8.82;5.45;;;;;;;21.18;51.98;101366.78;5024518;28;20050;-35
2023/05/09 08:31:39;;;;;;;9.93;6.35;;;;;;;21.17;51.92;101357.84;5021239;28;20072;-34
2023/05/09 08:34:05;;;;;;;7.63;5.22;;;;;;;21.17;52.15;101360.56;5023197;28;20062;-34
2023/05/09 08:36:32;;;;;;;7.43;5.20;;;;;;;21.18;52.12;101347.91;5029050;28;20335;-34
2023/05/09 08:38:59;;;;;;;7.50;5.15;;;;;;;21.18;52.16;101345.22;5027662;28;20087;-34
2023/05/09 08:41:26;;;;;;;7.47;5.35;;;;;;;21.18;51.84;101347.91;5027704;28;20049;-34
2023/05/09 08:43:54;;;;;;;6.88;5.45;;;;;;;21.17;52.00;101349.78;5027000;28;20140;-36
2023/05/09 08:46:29;;;;;;;7.47;4.93;;;;;;;21.17;52.15;101340.84;5024888;28;20045;-34
2023/05/09 08:48:57;;;;;;;7.38;5.15;;;;;;;21.18;51.71;101343.38;5026706;28;20055;-34
2023/05/09 08:51:24;;;;;;;7.10;5.38;;;;;;;21.18;51.83;101339.81;5026603;28;20120;-34
2023/05/09 08:53:51;;;;;;;6.88;4.75;;;;;;;21.18;51.98;101331.75;5026428;28;20441;-35
2023/05/09 08:56:18;;;;;;;6.00;4.78;;;;;;;21.18;52.02;101337.13;5026735;28;20145;-36
2023/05/09 08:58:45;;;;;;;8.30;4.95;;;;;;;21.18;52.14;101326.34;5027385;28;20049;-35
2023/05/09 09:01:13;;;;;;;5.90;4.57;;;;;;;21.18;52.15;101332.59;5026326;28;20046;-34
2023/05/09 09:03:46;;;;;;;7.13;4.40;;;;;;;21.19;52.10;101325.38;5025014;28;20399;-34
2023/05/09 09:06:13;;;;;;;5.50;4.70;;;;;;;21.19;51.98;101323.50;5023415;28;20041;-34
2023/05/09 09:08:41;;;;;;;5.70;4.57;;;;;;;21.19;52.06;101323.50;5019386;28;20046;-40
2023/05/09 09:11:12;;;;;;;7.03;4.30;;;;;;;21.19;51.85;101312.72;5028491;28;20040;-35
2023/05/09 09:13:40;;;;;;;6.60;4.60;;;;;;;21.20;52.40;101321.66;5030797;28;20159;-34
2023/05/09 09:16:16;;;;;;;6.93;4.60;;;;;;;21.19;52.28;101309.19;5030392;28;20053;-34
2023/05/09 09:18:44;;;;;;;5.72;4.45;;;;;;;21.19;51.95;101312.72;5027170;28;20047;-34
2023/05/09 09:21:18;;;;;;;5.60;4.35;;;;;;;21.20;51.84;101309.00;5026722;28;20045;-34
2023/05/09 09:23:49;;;;;;;5.72;4.10;;;;;;;21.20;52.28;101305.47;5027611;28;20361;-33
2023/05/09 09:26:15;;;;;;;6.38;4.30;;;;;;;21.20;52.14;101303.63;5023762;28;20053;-34
2023/05/09 09:28:42;;;;;;;6.28;4.40;;;;;;;21.19;52.14;101301.94;5023341;28;20455;-34
2023/05/09 09:31:27;;;;;;;5.90;3.95;;;;;;;21.19;52.38;101301.09;5024875;28;20184;-34
2023/05/09 09:34:02;;;;;;;6.32;4.47;;;;;;;21.19;52.47;101298.41;5028126;28;20058;-34
2023/05/09 09:36:31;;;;;;;6.15;3.85;;;;;;;21.19;52.08;101291.16;5027773;28;20064;-34
2023/05/09 09:38:59;;;;;;;5.78;3.58;;;;;;;21.20;51.83;101300.94;5024846;28;20147;-34
2023/05/09 09:41:34;;;;;;;5.22;3.72;;;;;;;21.19;52.08;101296.56;5024928;28;20048;-35
2023/05/09 09:44:08;;;;;;;7.22;3.80;;;;;;;21.18;52.13;101292.16;5023944;28;20088;-35
2023/05/09 09:46:51;;;;;;;4.70;3.65;;;;;;;21.17;52.04;101287.78;5024272;28;20068;-34
2023/05/09 09:49:20;;;;;;;5.30;3.88;;;;;;;21.18;51.92;101288.59;5024626;28;20446;-35
2023/05/09 09:51:51;;;;;;;4.82;3.78;;;;;;;21.17;52.24;101286.94;5022000;28;20380;-34
2023/05/09 09:54:17;;;;;;;6.15;3.75;;;;;;;21.16;52.44;101288.78;5024790;28;20089;-34
2023/05/09 09:56:47;;;;;;;10.30;4.32;;;;;;;21.17;52.23;101290.47;5023172;28;20371;-35
2023/05/09 09:59:18;;;;;;;5.38;3.90;;;;;;;21.16;52.08;101278.00;5025776;28;20104;-35
2023/05/09 10:02:05;;;;;;;5.10;3.35;;;;;;;21.16;52.69;101285.25;5023700;28;20067;-34
2023/05/09 10:04:39;;;;;;;4.80;3.55;;;;;;;21.16;52.32;101286.09;5020102;28;20049;-33
2023/05/09 10:07:09;;;;;;;4.53;3.42;;;;;;;21.15;52.31;101284.41;5021063;28;20049;-34
2023/05/09 10:09:40;;;;;;;;;;;;;;;21.14;52.45;101269.22;5025598;28;20377;-35
2023/05/09 10:12:07;;;;;;;5.90;3.90;;;;;;;21.18;52.39;101275.97;5024628;28;19975;-34
2023/05/09 10:14:35;;;;;;;4.90;3.25;;;;;;;21.17;52.08;101268.06;5026976;28;20662;-34
2023/05/09 10:17:03;;;;;;;5.15;3.63;;;;;;;21.16;52.36;101269.91;5022341;28;20131;-34
2023/05/09 10:19:31;;;;;;;3.88;3.15;;;;;;;21.16;52.11;101272.59;5023091;28;20053;-34
2023/05/09 10:22:04;;;;;;;4.80;3.55;;;;;;;21.15;52.05;101273.63;5019401;28;20148;-37
2023/05/09 10:24:44;;;;;;;4.97;3.40;;;;;;;21.13;52.35;101267.53;5027182;28;20049;-34
2023/05/09 10:27:11;;;;;;;3.97;3.10;;;;;;;21.14;52.11;101269.22;5019818;28;20052;-34
2023/05/09 10:29:45;;;;;;;5.45;3.58;;;;;;;21.14;52.13;101265.69;5022786;28;20131;-35
2023/05/09 10:32:31;;;;;;;9.07;3.28;;;;;;;21.12;52.50;101263.16;5021820;28;20053;-34
2023/05/09 10:35:05;;;;;;;4.15;3.03;;;;;;;21.13;52.25;101254.06;5022012;28;20045;-34
2023/05/09 10:37:32;;;;;;;5.30;3.30;;;;;;;21.13;52.35;101253.22;5021974;28;20062;-34
2023/05/09 10:40:03;;;;;;;5.78;3.15;;;;;;;21.13;52.62;101254.06;5025708;28;20061;-34
2023/05/09 10:42:30;;;;;;;3.88;2.95;;;;;;;21.13;52.69;101253.22;5024685;28;20384;-35
2023/05/09 10:44:57;;;;;;;4.05;2.67;;;;;;;21.13;52.49;101245.97;5024780;28;20083;-34
2023/05/09 10:47:27;;;;;;;4.18;2.70;;;;;;;21.13;52.58;101247.84;5020161;28;20695;-34
2023/05/09 10:49:54;;;;;;;4.13;3.00;;;;;;;21.13;52.60;101239.75;5026990;28;20052;-35
2023/05/09 10:52:22;;;;;;;3.67;2.70;;;;;;;21.12;52.53;101238.06;5021828;28;20044;-35
2023/05/09 10:55:03;;;;;;;3.53;2.70;;;;;;;21.11;52.60;101231.84;5027823;28;20060;-34
2023/05/09 10:57:31;;;;;;;4.05;3.13;;;;;;;21.12;52.91;101224.59;5021287;28;20045;-34
2023/05/09 10:59:59;;;;;;;3.75;2.90;;;;;;;21.11;52.62;101226.44;5026219;28;20049;-34
2023/05/09 11:02:29;;;;;;;4.28;2.58;;;;;;;21.11;52.35;101231.84;5023456;28;20046;-34
2023/05/09 11:05:16;;;;;;;4.85;2.90;;;;;;;21.11;52.65;101225.59;5022417;28;20111;-34
2023/05/09 11:07:43;;;;;;;4.55;2.85;;;;;;;21.11;52.46;101223.75;5022264;28;20685;-34
2023/05/09 11:10:16;;;;;;;3.60;2.67;;;;;;;21.12;52.62;101216.50;5023662;28;20140;-34
2023/05/09 11:12:56;;;;;;;3.22;2.60;;;;;;;21.12;52.92;101213.81;5023723;28;20045;-35
2023/05/09 11:15:25;;;;;;;3.63;2.65;;;;;;;21.14;52.53;101211.78;5022994;28;20048;-34
2023/05/09 11:18:09;;;;;;;3.33;2.40;;;;;;;21.14;52.81;101201.81;5023156;28;20136;-34
2023/05/09 11:20:42;;;;;;;3.40;2.60;;;;;;;21.16;52.47;101209.78;5022166;28;20053;-34
2023/05/09 11:23:14;;;;;;;4.10;2.58;;;;;;;21.16;52.81;101194.44;5021621;28;20042;-35